Airfield :
LOGIN :

Register | Disclaimer

   EN    FR    IT 

 










Legend :    VFR   Marginal VFR   IFR   Intensive IFR   Very Intensive IFR
Visi :
Ceiling :
>= 8 km
>= 3000ft
5 to 8 km
1000 to 3000 ft
1500m to 5 km
500 to 1000 ft
800 to 1500m
200 to 500 ft
< 800m
< 200 ft
Symbols :   Thunderstorms  Fog  Heavy snow  Heavy precipitations  Wind > 20 kt
SIGMETs :     Misc.  Thunderstorms  Icing  Turbulence  Mountain Waves  Volcanic Ashes






- Airport Elevation : 194 ft


EBCV - Chièvres

CURRENT METAR :
  • 051925Z AUTO 36007KT 9999 NCD 04/02 Q1042 BLU

EXPIRED METARs :
  • 051855Z AUTO 36007KT 9999 NCD 04/02 Q1042 BLU
  • 051825Z AUTO 36009KT 9999 FEW027/// 05/02 Q1042 BLU
  • 051755Z AUTO 36010KT 9999 FEW250/// 05/02 Q1042 BLU
  • 051725Z AUTO 36011KT 9999 FEW025/// 05/02 Q1041 BLU
  • 051655Z AUTO 35009KT 9999 FEW031/// 05/02 Q1041 BLU

TAF TAF EBCV
Valid from the 05 at 19:00 until the 06 at 07:00 UTC


051541Z 0519/0607 02007KT 9000 FEW025
TEMPO 0603/0607 VRB02KT 2000 BR BKN003 BY EBWM



MET'MAP, your aeronautical weather chart ! - Copyright ORBIFLY December 2007 - Disclaimer

ORBIFLY MET'MAP TEAM :

Programming & Development : Alexandra Zaïnal
Original concept : Baudouin d'Aumeries
Technical & hardware support : Manuel Goepfert
Assistance : Marc-Olivier Méhu




SOURCES & CREDITS :

   NOAA